PDT,Max TemperatureF,Mean TemperatureF,Min TemperatureF,Max Dew PointF,MeanDew PointF,Min DewpointF,Max Humidity, Mean Humidity, Min Humidity, Max Sea Level PressureIn, Mean Sea Level PressureIn, Min Sea Level PressureIn, Max VisibilityMiles, Mean VisibilityMiles, Min VisibilityMiles, Max Wind SpeedMPH, Mean Wind SpeedMPH, Max Gust SpeedMPH,PrecipitationIn, CloudCover, Events, WindDirDegrees
2013-3-1,57,54,51,54,53,52,100,95,88,30.32,30.27,30.25,10,10,5,22,12,34,0.09,8,,154
2013-3-2,55,48,41,54,47,39,100,91,82,30.24,30.14,30.03,10,9,3,17,11,29,0.02,7,,185
2013-3-3,46,40,33,41,37,34,100,89,66,30.33,30.27,30.18,10,10,10,9,4,,0.00,3,,330
2013-3-4,48,40,32,43,36,32,100,86,66,30.33,30.17,29.97,10,10,9,13,7,17,0.00,0,,21
2013-3-5,53,47,41,43,35,30,100,70,44,29.97,29.84,29.76,10,10,8,14,8,18,0.01,4,,13
2013-3-6,42,40,39,43,41,39,100,100,93,29.90,29.72,29.62,10,8,5,12,6,,0.29,7,,314
2013-3-7,46,40,35,46,41,36,100,100,100,30.12,30.05,29.91,10,8,1,8,3,,0.10,6,,99
2013-3-8,48,42,35,46,40,36,100,97,82,30.26,30.15,30.11,10,8,0,14,5,17,0.00,3,,345
2013-3-9,53,42,32,46,39,32,100,94,62,30.51,30.42,30.26,10,9,0,8,2,,0.00,0,,233
2013-3-10,46,42,37,46,42,37,100,100,93,30.50,30.47,30.44,10,9,0,7,1,,0.00,7,,203
2013-3-11,51,44,37,46,41,36,100,89,54,30.47,30.36,30.15,10,7,0,12,2,,0.05,4,,67
2013-3-12,53,48,44,54,50,45,100,100,100,30.14,30.07,30.02,10,8,4,15,9,25,0.39,8,,136
2013-3-13,55,53,51,55,53,52,100,100,94,30.18,30.13,30.08,10,9,5,16,10,22,0.26,8,,139
2013-3-14,55,52,50,55,52,48,100,98,88,30.14,30.05,30.01,10,10,5,15,6,23,0.05,3,,147
2013-3-15,59,52,46,54,50,46,100,96,77,30.21,30.17,30.13,10,10,5,13,7,18,0.02,7,,146
2013-3-16,48,44,41,48,44,37,100,98,81,30.13,29.98,29.88,10,8,1,16,6,22,0.14,7,,198
2013-3-17,46,42,39,41,38,34,100,82,62,30.18,30.12,29.95,10,10,10,17,6,25,0.00,5,,243
2013-3-18,50,44,37,43,36,32,100,81,50,30.27,30.18,30.10,10,10,4,12,8,21,0.06,4,,214
2013-3-19,53,45,37,43,36,32,100,74,44,30.26,29.98,29.58,10,10,7,18,9,25,0.00,3,,88
2013-3-20,53,47,41,52,45,34,100,89,66,29.99,29.58,29.33,10,9,1,21,13,36,0.38,6,,185
2013-3-21,46,42,37,39,38,34,100,88,62,30.20,30.13,30.00,10,10,4,15,8,22,0.00,6,,235
2013-3-22,46,39,32,39,35,32,100,86,57,30.39,30.30,30.20,10,10,10,12,5,20,0.00,2,,281
2013-3-23,48,40,32,36,33,32,100,80,54,30.42,30.37,30.33,10,10,10,9,5,,0.00,2,,30
2013-3-24,42,38,35,37,34,32,100,86,70,30.32,30.29,30.15,10,10,10,16,10,17,0.98,6,,61
2013-3-25,57,48,39,41,36,32,93,68,41,30.16,30.06,29.97,10,10,10,13,8,16,0.00,2,,10
2013-3-26,57,48,39,43,40,36,100,75,51,30.04,30.00,29.98,10,10,10,14,8,16,0.00,3,,20
2013-3-27,55,47,39,50,45,39,100,89,67,30.01,29.98,29.97,10,10,9,8,3,,0.00,4,,342
2013-3-28,60,50,39,52,47,39,100,89,63,30.17,30.08,30.01,10,10,8,10,4,,0.00,2,,302
2013-3-29,60,50,41,52,47,41,100,90,63,30.28,30.24,30.17,10,10,8,12,3,,0.00,2,,294
2013-3-30,59,48,37,54,47,37,100,92,67,30.29,30.22,30.11,10,8,0,15,5,17,0.00,1,,317
2013-3-31,62,50,39,48,44,39,100,80,52,30.11,30.02,29.93,10,9,2,12,5,,0.00,0,,308